createdAt,value
2018-02-25T00:00:20.331Z,50.90
2018-02-25T00:02:47.935Z,50.90
2018-02-25T00:05:16.410Z,51.50
2018-02-25T00:07:43.984Z,51.30
2018-02-25T00:10:12.522Z,51.20
2018-02-25T00:12:40.702Z,51.30
2018-02-25T00:15:08.277Z,51.20
2018-02-25T00:17:36.581Z,51.40
2018-02-25T00:20:05.054Z,51.00
2018-02-25T00:22:32.573Z,51.20
2018-02-25T00:25:00.175Z,51.20
2018-02-25T00:27:27.773Z,51.30
2018-02-25T00:29:56.085Z,51.70
2018-02-25T00:32:23.648Z,51.80
2018-02-25T00:34:52.087Z,51.50
2018-02-25T00:37:20.552Z,51.90
2018-02-25T00:39:50.723Z,52.20
2018-02-25T00:42:18.296Z,52.20
2018-02-25T00:44:45.933Z,52.20
2018-02-25T00:47:13.712Z,52.40
2018-02-25T00:49:41.932Z,52.70
2018-02-25T00:52:09.499Z,52.80
2018-02-25T00:54:37.868Z,53.20
2018-02-25T00:57:05.525Z,53.00
2018-02-25T00:59:34.654Z,52.70
2018-02-25T01:02:03.187Z,53.30
2018-02-25T01:04:31.548Z,53.40
2018-02-25T01:06:59.210Z,53.40
2018-02-25T01:09:27.609Z,53.50
2018-02-25T01:11:55.146Z,53.50
2018-02-25T01:14:23.866Z,53.70
2018-02-25T01:16:51.403Z,53.80
2018-02-25T01:19:18.975Z,53.60
2018-02-25T01:21:47.415Z,53.50
2018-02-25T01:24:14.964Z,53.30
2018-02-25T01:26:42.608Z,53.70
2018-02-25T01:29:10.747Z,53.70
2018-02-25T01:31:38.312Z,53.70
2018-02-25T01:34:06.848Z,53.60
2018-02-25T01:36:34.513Z,53.50
2018-02-25T01:39:03.080Z,53.40
2018-02-25T01:41:30.635Z,53.60
2018-02-25T01:43:58.264Z,53.50
2018-02-25T01:46:26.643Z,53.20
2018-02-25T01:48:56.218Z,53.20
2018-02-25T01:51:23.786Z,53.10
2018-02-25T01:53:51.416Z,53.30
2018-02-25T01:56:18.961Z,53.60
2018-02-25T01:58:46.577Z,53.50
2018-02-25T02:01:15.329Z,53.90
2018-02-25T02:03:43.641Z,53.90
2018-02-25T02:06:12.007Z,53.80
2018-02-25T02:08:40.378Z,53.90
2018-02-25T02:11:08.036Z,54.20
2018-02-25T02:13:35.644Z,54.10
2018-02-25T02:16:03.371Z,54.20
2018-02-25T02:18:30.930Z,54.10
2018-02-25T02:20:59.299Z,53.80
2018-02-25T02:23:28.316Z,53.80
2018-02-25T02:25:55.875Z,54.20
2018-02-25T02:28:23.583Z,53.90
2018-02-25T02:30:51.965Z,54.00
2018-02-25T02:33:20.355Z,53.90
2018-02-25T02:35:48.015Z,53.90
2018-02-25T02:38:15.795Z,54.50
2018-02-25T02:40:44.110Z,54.90
2018-02-25T02:43:12.638Z,54.90
2018-02-25T02:45:41.999Z,54.60
2018-02-25T02:48:11.565Z,54.80
2018-02-25T02:50:40.168Z,54.80
2018-02-25T02:53:08.614Z,54.70
2018-02-25T02:55:36.228Z,54.70
2018-02-25T02:58:03.896Z,55.00
2018-02-25T03:00:32.482Z,55.00
2018-02-25T03:05:53.430Z,54.90
2018-02-25T03:08:21.131Z,55.10
2018-02-25T03:10:48.743Z,55.50
2018-02-25T03:13:17.189Z,55.60
2018-02-25T03:15:44.729Z,55.60
2018-02-25T03:18:12.395Z,55.70
2018-02-25T03:20:41.435Z,55.90
2018-02-25T03:23:10.712Z,55.90
2018-02-25T03:25:38.356Z,56.10
2018-02-25T03:28:05.945Z,56.20
2018-02-25T03:30:34.433Z,56.40
2018-02-25T03:33:03.088Z,56.20
2018-02-25T03:35:30.854Z,56.00
2018-02-25T03:37:58.442Z,56.10
2018-02-25T03:40:27.743Z,56.70
2018-02-25T03:42:55.330Z,56.60
2018-02-25T03:45:22.889Z,56.40
2018-02-25T03:47:53.384Z,56.30
2018-02-25T03:50:21.003Z,56.50
2018-02-25T03:52:49.306Z,56.50
2018-02-25T03:55:16.852Z,56.50
2018-02-25T03:57:45.407Z,56.60
2018-02-25T04:00:12.976Z,56.70
2018-02-25T04:02:41.157Z,56.70
2018-02-25T04:05:10.358Z,57.00
2018-02-25T04:07:37.907Z,57.00
2018-02-25T04:10:06.296Z,57.20
2018-02-25T04:12:34.227Z,57.10
2018-02-25T04:15:01.853Z,57.30
2018-02-25T04:17:30.912Z,57.50
2018-02-25T04:19:58.589Z,57.50
2018-02-25T04:22:27.934Z,57.70
2018-02-25T04:24:55.853Z,57.50
2018-02-25T04:27:23.600Z,57.20
2018-02-25T04:29:52.661Z,57.50
2018-02-25T04:32:20.267Z,57.40
2018-02-25T04:34:47.880Z,57.30
2018-02-25T04:37:15.564Z,57.60
2018-02-25T04:39:43.866Z,57.30
2018-02-25T04:42:12.235Z,57.30
2018-02-25T04:44:40.227Z,57.40
2018-02-25T04:47:08.610Z,57.60
2018-02-25T04:49:37.293Z,57.60
2018-02-25T04:52:04.928Z,57.50
2018-02-25T04:54:32.576Z,57.70
2018-02-25T04:57:00.169Z,57.80
2018-02-25T04:59:27.775Z,57.60
2018-02-25T05:01:55.329Z,57.70
2018-02-25T05:04:25.281Z,57.70
2018-02-25T05:06:52.983Z,57.60
2018-02-25T05:09:20.786Z,57.60
2018-02-25T05:11:48.461Z,57.60
2018-02-25T05:14:16.909Z,58.10
2018-02-25T05:16:44.512Z,58.00
2018-02-25T05:19:12.735Z,58.30
2018-02-25T05:21:41.602Z,58.30
2018-02-25T05:24:09.178Z,58.30
2018-02-25T05:26:36.883Z,58.20
2018-02-25T05:29:05.290Z,58.20
2018-02-25T05:31:32.924Z,58.20
2018-02-25T05:34:00.502Z,58.20
2018-02-25T05:36:28.038Z,58.30
2018-02-25T05:38:55.654Z,58.10
2018-02-25T05:41:23.578Z,58.20
2018-02-25T05:43:51.193Z,58.10
2018-02-25T05:46:18.863Z,58.10
2018-02-25T05:48:46.757Z,57.90
2018-02-25T05:51:14.347Z,58.00
2018-02-25T05:53:42.501Z,57.90
2018-02-25T05:56:11.273Z,57.90
2018-02-25T05:58:38.821Z,57.50
2018-02-25T06:01:06.728Z,57.60
2018-02-25T06:03:34.813Z,57.50
2018-02-25T06:06:02.559Z,57.90
2018-02-25T06:08:31.284Z,58.10
2018-02-25T06:10:58.877Z,57.80
2018-02-25T06:13:26.458Z,57.30
2018-02-25T06:15:54.763Z,57.40
2018-02-25T06:18:23.667Z,57.40
2018-02-25T06:20:51.223Z,57.10
2018-02-25T06:23:18.848Z,57.50
2018-02-25T06:25:46.854Z,57.40
2018-02-25T06:28:14.444Z,57.50
2018-02-25T06:30:42.618Z,57.20
2018-02-25T06:33:11.891Z,56.80
2018-02-25T06:35:39.464Z,56.90
2018-02-25T06:38:07.019Z,56.40
2018-02-25T06:40:34.622Z,56.30
2018-02-25T06:43:02.221Z,56.70
2018-02-25T06:45:29.888Z,56.70
2018-02-25T06:47:57.561Z,56.90
2018-02-25T06:50:25.921Z,56.80
2018-02-25T06:52:54.252Z,56.10
2018-02-25T06:55:22.057Z,56.00
2018-02-25T06:57:49.627Z,56.30
2018-02-25T07:00:17.317Z,56.30
2018-02-25T07:02:44.978Z,56.10
2018-02-25T07:05:12.579Z,56.00
2018-02-25T07:07:40.968Z,55.20
2018-02-25T07:10:08.733Z,53.70
2018-02-25T07:12:36.384Z,53.30
2018-02-25T07:15:04.059Z,52.90
2018-02-25T07:17:31.626Z,52.30
2018-02-25T07:19:59.196Z,52.50
2018-02-25T07:22:26.778Z,52.80
2018-02-25T07:24:54.398Z,52.20
2018-02-25T07:27:22.171Z,52.80
2018-02-25T07:29:49.719Z,51.70
2018-02-25T07:32:17.373Z,51.80
2018-02-25T07:34:44.990Z,50.80
2018-02-25T07:37:12.542Z,50.20
2018-02-25T07:39:41.006Z,49.10
2018-02-25T07:42:08.566Z,48.30
2018-02-25T07:44:36.214Z,48.20
2018-02-25T07:47:04.235Z,48.90
2018-02-25T07:49:31.821Z,48.10
2018-02-25T07:52:00.502Z,48.80
2018-02-25T07:54:28.198Z,48.70
2018-02-25T07:56:55.804Z,48.50
2018-02-25T07:59:23.380Z,49.10
2018-02-25T08:01:51.335Z,49.00
2018-02-25T08:04:18.977Z,49.60
2018-02-25T08:06:46.552Z,48.60
2018-02-25T08:09:14.703Z,48.10
2018-02-25T08:11:42.467Z,48.40
2018-02-25T08:14:10.655Z,47.10
2018-02-25T08:16:38.444Z,46.70
2018-02-25T08:19:06.887Z,45.90
2018-02-25T08:21:35.427Z,45.90
2018-02-25T08:24:03.629Z,44.90
2018-02-25T08:26:31.263Z,43.20
2018-02-25T08:28:58.862Z,44.30
2018-02-25T08:31:26.574Z,43.00
2018-02-25T08:33:54.208Z,43.00
2018-02-25T08:36:21.863Z,43.80
2018-02-25T08:38:49.824Z,44.60
2018-02-25T08:41:17.463Z,44.90
2018-02-25T08:43:45.105Z,44.00
2018-02-25T08:46:12.767Z,43.60
2018-02-25T08:48:41.037Z,44.00
2018-02-25T08:51:08.624Z,43.60
2018-02-25T08:53:37.261Z,44.30
2018-02-25T08:56:04.903Z,45.30
2018-02-25T08:58:32.541Z,45.30
2018-02-25T09:01:00.415Z,45.80
2018-02-25T09:03:28.864Z,45.10
2018-02-25T09:05:56.522Z,45.10
2018-02-25T09:08:24.703Z,44.30
2018-02-25T09:10:52.298Z,43.50
2018-02-25T09:13:20.365Z,43.30
2018-02-25T09:15:49.378Z,42.20
2018-02-25T09:18:16.973Z,42.60
2018-02-25T09:20:45.296Z,44.80
2018-02-25T09:23:13.016Z,44.80
2018-02-25T09:25:42.758Z,44.00
2018-02-25T09:28:12.319Z,44.00
2018-02-25T09:30:40.987Z,44.10
2018-02-25T09:33:08.564Z,43.20
2018-02-25T09:35:36.103Z,42.80
2018-02-25T09:38:04.397Z,42.50
2018-02-25T09:40:32.781Z,42.60
2018-02-25T09:43:01.098Z,43.40
2018-02-25T09:45:28.821Z,43.30
2018-02-25T09:47:56.390Z,43.10
2018-02-25T09:50:24.707Z,42.00
2018-02-25T09:52:52.627Z,42.10
2018-02-25T09:55:20.954Z,41.10
2018-02-25T09:57:48.521Z,41.10
2018-02-25T10:00:16.566Z,40.80
2018-02-25T10:02:44.212Z,40.40
2018-02-25T10:05:12.436Z,40.20
2018-02-25T10:07:41.312Z,39.80
2018-02-25T10:10:08.878Z,40.50
2018-02-25T10:12:37.331Z,39.30
2018-02-25T10:15:04.989Z,41.00
2018-02-25T10:17:32.535Z,41.50
2018-02-25T10:20:00.085Z,40.90
2018-02-25T10:22:32.690Z,40.60
2018-02-25T10:25:01.098Z,40.40
2018-02-25T10:27:28.662Z,40.30
2018-02-25T10:29:56.578Z,39.90
2018-02-25T10:32:24.202Z,38.30
2018-02-25T10:34:52.534Z,36.70
2018-02-25T10:37:20.442Z,36.80
2018-02-25T10:39:48.899Z,38.10
2018-02-25T10:42:16.481Z,37.50
2018-02-25T10:44:44.080Z,37.30
2018-02-25T10:47:12.213Z,37.70
2018-02-25T10:49:40.171Z,36.40
2018-02-25T10:52:08.837Z,36.80
2018-02-25T10:54:36.473Z,36.70
2018-02-25T10:57:04.053Z,36.00
2018-02-25T10:59:31.669Z,35.90
2018-02-25T11:01:59.215Z,36.80
2018-02-25T11:04:26.796Z,37.30
2018-02-25T11:06:54.374Z,36.60
2018-02-25T11:09:22.097Z,35.30
2018-02-25T11:11:49.736Z,34.20
2018-02-25T11:14:17.351Z,34.70
2018-02-25T11:16:45.877Z,34.60
2018-02-25T11:19:13.575Z,33.20
2018-02-25T11:21:42.770Z,32.70
2018-02-25T11:24:11.059Z,32.70
2018-02-25T11:26:38.713Z,31.20
2018-02-25T11:29:06.458Z,29.60
2018-02-25T11:31:34.072Z,27.80
2018-02-25T11:34:01.837Z,29.00
2018-02-25T11:36:30.281Z,30.60
2018-02-25T11:38:58.148Z,30.50
2018-02-25T11:41:26.544Z,34.70
2018-02-25T11:43:54.614Z,34.60
2018-02-25T11:46:22.295Z,36.30
2018-02-25T11:48:50.078Z,37.00
2018-02-25T11:51:18.217Z,37.20
2018-02-25T11:53:46.561Z,39.10
2018-02-25T11:56:14.164Z,39.10
2018-02-25T11:58:43.228Z,40.10
2018-02-25T12:01:11.385Z,40.40
2018-02-25T12:03:40.315Z,40.80
2018-02-25T12:06:09.079Z,40.80
2018-02-25T12:08:36.788Z,40.50
2018-02-25T12:11:04.605Z,40.20
2018-02-25T12:13:32.211Z,40.20
2018-02-25T12:15:59.836Z,40.00
2018-02-25T12:18:27.680Z,40.20
2018-02-25T12:20:55.681Z,40.50
2018-02-25T12:23:23.266Z,40.40
2018-02-25T12:25:52.569Z,38.90
2018-02-25T12:28:20.371Z,39.00
2018-02-25T12:30:48.997Z,39.00
2018-02-25T12:33:16.707Z,39.40
2018-02-25T12:35:44.342Z,38.90
2018-02-25T12:38:14.348Z,39.50
2018-02-25T12:40:43.363Z,38.80
2018-02-25T12:43:11.277Z,39.70
2018-02-25T12:45:38.872Z,40.30
2018-02-25T12:48:06.526Z,40.50
2018-02-25T12:50:34.206Z,40.00
2018-02-25T12:53:03.684Z,38.90
2018-02-25T12:55:31.264Z,38.90
2018-02-25T12:57:59.323Z,39.70
2018-02-25T13:00:27.061Z,40.10
2018-02-25T13:02:54.598Z,39.90
2018-02-25T13:05:25.899Z,40.00
2018-02-25T13:07:53.474Z,40.10
2018-02-25T13:10:21.097Z,39.50
2018-02-25T13:12:48.775Z,39.40
2018-02-25T13:15:16.427Z,39.10
2018-02-25T13:17:45.138Z,39.80
2018-02-25T13:20:13.900Z,37.20
2018-02-25T13:22:42.676Z,37.20
2018-02-25T13:25:11.872Z,37.30
2018-02-25T13:27:40.847Z,38.00
2018-02-25T13:30:09.168Z,38.00
2018-02-25T13:32:36.822Z,37.90
2018-02-25T13:35:06.229Z,38.10
2018-02-25T13:37:34.566Z,38.20
2018-02-25T13:40:02.392Z,38.20
2018-02-25T13:42:31.021Z,38.60
2018-02-25T13:44:58.549Z,39.30
2018-02-25T13:47:26.144Z,39.00
2018-02-25T13:49:54.575Z,38.80
2018-02-25T13:52:22.412Z,38.80
2018-02-25T13:54:50.066Z,39.10
2018-02-25T13:57:17.730Z,39.10
2018-02-25T13:59:45.485Z,39.10
2018-02-25T14:02:13.939Z,39.00
2018-02-25T14:04:42.503Z,38.30
2018-02-25T14:07:11.408Z,38.70
2018-02-25T14:09:41.491Z,38.60
2018-02-25T14:12:09.144Z,38.50
2018-02-25T14:14:36.706Z,38.90
2018-02-25T14:17:05.058Z,38.80
2018-02-25T14:19:33.416Z,37.90
2018-02-25T14:22:01.038Z,37.90
2018-02-25T14:24:28.854Z,38.40
2018-02-25T14:26:57.202Z,37.60
2018-02-25T14:29:24.821Z,37.60
2018-02-25T14:31:52.387Z,37.30
2018-02-25T14:34:20.194Z,37.80
2018-02-25T14:36:47.853Z,38.30
2018-02-25T14:39:16.580Z,38.30
2018-02-25T14:41:44.460Z,38.60
2018-02-25T14:44:12.829Z,39.30
2018-02-25T14:46:42.143Z,39.10
2018-02-25T14:49:10.231Z,39.10
2018-02-25T14:51:38.020Z,39.80
2018-02-25T14:54:06.596Z,40.30
2018-02-25T14:56:34.441Z,40.20
2018-02-25T14:59:03.212Z,39.90
2018-02-25T15:01:30.798Z,39.90
2018-02-25T15:03:58.587Z,39.40
2018-02-25T15:06:26.172Z,40.40
2018-02-25T15:08:54.010Z,40.10
2018-02-25T15:11:21.687Z,39.10
2018-02-25T15:13:50.228Z,39.70
2018-02-25T15:16:17.956Z,39.80
2018-02-25T15:18:47.084Z,39.50
2018-02-25T15:21:14.997Z,39.60
2018-02-25T15:23:42.767Z,40.30
2018-02-25T15:26:12.022Z,40.50
2018-02-25T15:28:40.204Z,40.40
2018-02-25T15:31:07.873Z,40.00
2018-02-25T15:33:35.529Z,39.20
2018-02-25T15:36:04.362Z,40.20
2018-02-25T15:38:33.044Z,40.00
2018-02-25T15:41:01.985Z,40.00
2018-02-25T15:43:29.646Z,40.00
2018-02-25T15:45:58.186Z,40.10
2018-02-25T15:48:26.566Z,40.60
2018-02-25T15:50:54.221Z,40.40
2018-02-25T15:53:22.111Z,40.30
2018-02-25T15:55:50.919Z,39.80
2018-02-25T15:58:19.450Z,39.70
2018-02-25T16:00:49.734Z,40.10
2018-02-25T16:03:17.798Z,39.90
2018-02-25T16:05:45.473Z,40.40
2018-02-25T16:08:13.228Z,40.10
2018-02-25T16:10:42.722Z,40.20
2018-02-25T16:13:11.675Z,40.30
2018-02-25T16:15:42.150Z,40.20
2018-02-25T16:18:10.249Z,40.30
2018-02-25T16:20:38.067Z,40.50
2018-02-25T16:23:05.907Z,40.70
2018-02-25T16:25:33.507Z,40.80
2018-02-25T16:28:01.286Z,40.70
2018-02-25T16:30:28.957Z,40.90
2018-02-25T16:32:56.588Z,40.20
2018-02-25T16:35:24.148Z,40.70
2018-02-25T16:37:51.960Z,40.60
2018-02-25T16:40:20.622Z,40.20
2018-02-25T16:42:48.402Z,40.20
2018-02-25T16:45:17.171Z,40.50
2018-02-25T16:47:45.029Z,40.30
2018-02-25T16:50:13.366Z,40.90
2018-02-25T16:52:42.819Z,41.00
2018-02-25T16:55:12.382Z,41.10
2018-02-25T16:57:40.046Z,40.80
2018-02-25T17:00:08.799Z,40.60
2018-02-25T17:02:37.205Z,40.50
2018-02-25T17:05:05.164Z,40.50
2018-02-25T17:07:32.765Z,40.80
2018-02-25T17:10:00.757Z,40.80
2018-02-25T17:12:29.149Z,41.60
2018-02-25T17:14:56.860Z,41.60
2018-02-25T17:17:24.549Z,41.30
2018-02-25T17:19:53.094Z,41.10
2018-02-25T17:22:22.001Z,41.00
2018-02-25T17:24:51.186Z,41.00
2018-02-25T17:27:20.102Z,41.50
2018-02-25T17:29:47.802Z,41.50
2018-02-25T17:32:15.770Z,40.60
2018-02-25T17:34:43.429Z,40.60
2018-02-25T17:37:13.125Z,40.50
2018-02-25T17:39:42.769Z,40.80
2018-02-25T17:42:11.368Z,40.90
2018-02-25T17:44:39.008Z,40.30
2018-02-25T17:47:06.597Z,40.50
2018-02-25T17:49:34.237Z,40.40
2018-02-25T17:52:01.815Z,40.40
2018-02-25T17:54:30.380Z,40.40
2018-02-25T17:56:59.247Z,40.30
2018-02-25T17:59:27.627Z,40.60
2018-02-25T18:01:55.884Z,40.60
2018-02-25T18:04:23.558Z,40.60
2018-02-25T18:06:51.728Z,40.40
2018-02-25T18:09:19.393Z,41.00
2018-02-25T18:11:47.838Z,41.10
2018-02-25T18:14:15.544Z,41.20
2018-02-25T18:16:44.088Z,41.90
2018-02-25T18:19:12.607Z,41.90
2018-02-25T18:21:41.023Z,41.60
2018-02-25T18:24:08.745Z,42.10
2018-02-25T18:26:36.422Z,41.20
2018-02-25T18:29:04.247Z,41.30
2018-02-25T18:31:32.177Z,41.20
2018-02-25T18:34:00.602Z,42.00
2018-02-25T18:36:28.234Z,41.40
2018-02-25T18:38:56.391Z,41.50
2018-02-25T18:41:24.078Z,41.50
2018-02-25T18:43:51.674Z,42.00
2018-02-25T18:46:20.161Z,42.50
2018-02-25T18:48:47.793Z,42.50
2018-02-25T18:51:15.371Z,42.20
2018-02-25T18:53:42.975Z,42.70
2018-02-25T18:56:11.371Z,42.80
2018-02-25T18:58:38.986Z,43.00
2018-02-25T19:01:07.691Z,42.90
2018-02-25T19:03:35.364Z,42.90
2018-02-25T19:06:03.086Z,43.10
2018-02-25T19:08:32.236Z,43.00
2018-02-25T19:10:59.828Z,43.20
2018-02-25T19:13:27.535Z,43.70
2018-02-25T19:15:55.244Z,43.50
2018-02-25T19:18:22.949Z,44.00
2018-02-25T19:20:51.305Z,44.20
2018-02-25T19:23:32.839Z,43.60
2018-02-25T19:26:00.396Z,43.70
2018-02-25T19:28:27.960Z,44.30
2018-02-25T19:30:56.975Z,44.20
2018-02-25T19:33:24.599Z,45.00
2018-02-25T19:35:59.935Z,45.00
2018-02-25T19:38:33.885Z,45.10
2018-02-25T19:41:07.163Z,45.10
2018-02-25T19:43:34.738Z,45.10
2018-02-25T19:46:03.875Z,45.50
2018-02-25T19:48:31.614Z,45.60
2018-02-25T19:50:59.163Z,45.60
2018-02-25T19:53:27.751Z,45.90
2018-02-25T19:55:55.552Z,46.10
2018-02-25T19:58:24.623Z,46.90
2018-02-25T20:00:54.215Z,46.90
2018-02-25T20:03:21.872Z,46.70
2018-02-25T20:05:49.489Z,47.00
2018-02-25T20:08:18.111Z,47.50
2018-02-25T20:10:45.991Z,47.60
2018-02-25T20:13:13.577Z,47.60
2018-02-25T20:15:42.532Z,47.60
2018-02-25T20:18:10.975Z,47.70
2018-02-25T20:20:38.606Z,48.00
2018-02-25T20:23:06.395Z,48.10
2018-02-25T20:25:34.159Z,48.40
2018-02-25T20:28:02.531Z,48.90
2018-02-25T20:30:30.191Z,48.90
2018-02-25T20:32:57.962Z,48.90
2018-02-25T20:35:25.540Z,49.40
2018-02-25T20:37:53.094Z,49.70
2018-02-25T20:40:20.916Z,49.80
2018-02-25T20:42:50.164Z,50.00
2018-02-25T20:45:17.829Z,50.10
2018-02-25T20:47:45.469Z,50.10
2018-02-25T20:50:13.792Z,50.80
2018-02-25T20:52:42.025Z,50.80
2018-02-25T20:55:12.443Z,50.70
2018-02-25T20:57:41.277Z,50.70
2018-02-25T21:00:08.887Z,50.80
2018-02-25T21:02:36.475Z,50.90
2018-02-25T21:05:04.956Z,51.20
2018-02-25T21:07:33.600Z,51.00
2018-02-25T21:10:03.010Z,51.60
2018-02-25T21:12:30.590Z,51.60
2018-02-25T21:14:58.169Z,51.90
2018-02-25T21:17:25.747Z,52.10
2018-02-25T21:19:53.331Z,52.10
2018-02-25T21:22:20.885Z,52.30
2018-02-25T21:24:48.558Z,52.80
2018-02-25T21:27:17.174Z,53.10
2018-02-25T21:29:44.767Z,53.70
2018-02-25T21:32:13.117Z,53.70
2018-02-25T21:34:41.263Z,53.80
2018-02-25T21:37:09.593Z,54.10
2018-02-25T21:39:38.021Z,54.00
2018-02-25T21:42:06.606Z,54.10
2018-02-25T21:44:34.471Z,53.90
2018-02-25T21:47:02.241Z,53.10
2018-02-25T21:49:29.839Z,52.90
2018-02-25T21:51:57.437Z,53.00
2018-02-25T21:54:30.881Z,51.80
2018-02-25T21:57:04.035Z,51.80
2018-02-25T21:59:37.402Z,51.60
2018-02-25T22:02:11.995Z,51.50
2018-02-25T22:04:40.888Z,51.70
2018-02-25T22:07:08.503Z,51.50
2018-02-25T22:09:36.066Z,51.20
2018-02-25T22:12:04.026Z,51.20
2018-02-25T22:14:31.637Z,51.00
2018-02-25T22:16:59.221Z,51.00
2018-02-25T22:19:26.836Z,50.60
2018-02-25T22:21:54.411Z,50.80
2018-02-25T22:24:22.026Z,50.20
2018-02-25T22:26:49.611Z,50.40
2018-02-25T22:29:17.209Z,50.80
2018-02-25T22:31:44.860Z,49.80
2018-02-25T22:34:12.926Z,49.60
2018-02-25T22:36:42.161Z,49.40
2018-02-25T22:39:10.315Z,50.00
2018-02-25T22:41:37.988Z,50.10
2018-02-25T22:44:05.747Z,50.20
2018-02-25T22:46:33.341Z,50.00
2018-02-25T22:49:00.983Z,49.70
2018-02-25T22:51:28.561Z,49.60
2018-02-25T22:53:56.185Z,49.80
2018-02-25T22:56:24.519Z,49.90
2018-02-25T22:58:53.826Z,49.40
2018-02-25T23:01:22.187Z,49.50
2018-02-25T23:03:50.195Z,49.40
2018-02-25T23:06:17.802Z,49.20
2018-02-25T23:08:46.323Z,49.10
2018-02-25T23:11:14.099Z,49.10
2018-02-25T23:13:42.505Z,49.40
2018-02-25T23:16:11.254Z,49.20
2018-02-25T23:18:40.619Z,49.90
2018-02-25T23:21:08.965Z,49.40
2018-02-25T23:23:37.284Z,49.60
2018-02-25T23:26:05.084Z,49.50
2018-02-25T23:28:32.630Z,49.70
2018-02-25T23:31:00.190Z,49.60
2018-02-25T23:33:28.669Z,49.80
2018-02-25T23:35:56.214Z,49.70
2018-02-25T23:38:23.894Z,49.30
2018-02-25T23:40:51.539Z,49.60
2018-02-25T23:43:20.016Z,49.50
2018-02-25T23:45:47.556Z,49.70
2018-02-25T23:48:15.234Z,49.60
2018-02-25T23:50:42.814Z,49.80
2018-02-25T23:53:11.517Z,50.20
2018-02-25T23:55:39.481Z,50.20
2018-02-25T23:58:07.065Z,50.20
